Welcome to Northern Hawkes Bay. New Zealand.
PWS Header
      nz Flag



Hit Counter


W3C Valid W3C Valid logo


    Wairoa

Select any of the Stations below to visit their websites.










Historic Data from Weather Underground
Select the location of interest below. Wairoa is the default. Please have patience, this Data is slow to load in.
Northern Hawkes Bay Historical Data
Daily Summary for January 28, 2017 Units:  Metric    English   Both
« Previous Day
Next Day »
Daily Weekly Monthly Yearly Custom
  High: Low: Average:
Temperature: 23.1 °C 13.0 °C 18.9 °C
Dew Point: 16.1 °C 10.3 °C 13.7 °C
Humidity: 88% 60% 72%
Wind Speed: 18.3km/h 0.0km/h 7.2km/h
Wind Gust: 28.0km/h - -
Wind- - South
Pressure: 1022.2 hPa 1013.8 hPa -
Precipitation: 0.0 mm    
Historical Graphs
 
 
Tabular Data for January 28, 2017
Time Temperature Dew Point Pressure Wind Wind Speed Wind Gust Humidity Rainfall Rate (Hourly) solar
00:02 20.1 °C 12.3 °C 1013.8 hPa WSW 14.8 km/h 25.6 km/h 61% 0.0 mm 0 W/m2
00:08 20.0 °C 12.8 °C 1014.1 hPa WSW 8.7 km/h 25.6 km/h 63% 0.0 mm 0 W/m2
00:13 19.9 °C 13.1 °C 1014.1 hPa WSW 6.1 km/h 17.2 km/h 65% 0.0 mm 0 W/m2
00:18 19.8 °C 12.8 °C 1014.1 hPa WSW 11.1 km/h 18.3 km/h 64% 0.0 mm 0 W/m2
00:23 19.8 °C 12.8 °C 1014.4 hPa WSW 17.2 km/h 25.6 km/h 64% 0.0 mm 0 W/m2
00:29 19.9 °C 11.9 °C 1014.4 hPa WSW 15.8 km/h 28.0 km/h 60% 0.0 mm 0 W/m2
00:34 19.9 °C 12.2 °C 1014.4 hPa SW 12.2 km/h 28.0 km/h 61% 0.0 mm 0 W/m2
00:39 19.7 °C 12.4 °C 1014.4 hPa WSW 9.7 km/h 21.9 km/h 63% 0.0 mm 0 W/m2
00:44 19.6 °C 12.4 °C 1014.4 hPa WSW 12.2 km/h 18.3 km/h 63% 0.0 mm 0 W/m2
00:49 19.6 °C 12.6 °C 1014.8 hPa WSW 11.1 km/h 19.5 km/h 64% 0.0 mm 0 W/m2
00:54 19.4 °C 12.4 °C 1014.4 hPa WSW 12.2 km/h 20.9 km/h 64% 0.0 mm 0 W/m2
00:59 19.4 °C 12.4 °C 1014.4 hPa WSW 15.8 km/h 20.9 km/h 64% 0.0 mm 0 W/m2
01:04 19.4 °C 12.4 °C 1014.8 hPa WSW 7.2 km/h 23.3 km/h 64% 0.0 mm 0 W/m2
01:09 19.3 °C 12.6 °C 1014.8 hPa SW 8.7 km/h 23.3 km/h 65% 0.0 mm 0 W/m2
01:14 19.3 °C 12.6 °C 1014.8 hPa SW 12.2 km/h 23.3 km/h 65% 0.0 mm 0 W/m2
01:19 19.2 °C 12.7 °C 1014.8 hPa SW 9.7 km/h 23.3 km/h 66% 0.0 mm 0 W/m2
01:24 19.1 °C 13.7 °C 1014.8 hPa SW 6.1 km/h 18.3 km/h 71% 0.0 mm 0 W/m2
01:29 18.9 °C 14.6 °C 1014.8 hPa SW 7.2 km/h 15.8 km/h 76% 0.0 mm 0 W/m2
01:34 18.8 °C 14.7 °C 1014.8 hPa SW 11.1 km/h 18.3 km/h 77% 0.0 mm 0 W/m2
01:39 18.6 °C 15.1 °C 1015.1 hPa SW 7.2 km/h 18.3 km/h 80% 0.0 mm 0 W/m2
01:44 18.4 °C 15.3 °C 1015.1 hPa SW 5.0 km/h 12.2 km/h 82% 0.0 mm 0 W/m2
01:49 18.3 °C 15.2 °C 1015.1 hPa WSW 7.2 km/h 12.2 km/h 82% 0.0 mm 0 W/m2
01:54 18.3 °C 15.0 °C 1015.1 hPa SW 3.5 km/h 12.2 km/h 81% 0.0 mm 0 W/m2
01:59 18.2 °C 14.5 °C 1015.1 hPa SW 6.1 km/h 11.1 km/h 79% 0.0 mm 0 W/m2
02:04 18.2 °C 14.3 °C 1015.1 hPa SW 7.2 km/h 14.8 km/h 78% 0.0 mm 0 W/m2
02:09 18.1 °C 14.0 °C 1015.5 hPa SW 11.1 km/h 14.8 km/h 77% 0.0 mm 0 W/m2
02:14 18.1 °C 13.8 °C 1015.5 hPa SW 6.1 km/h 13.4 km/h 76% 0.0 mm 0 W/m2
02:19 18.1 °C 13.4 °C 1015.5 hPa SW 8.7 km/h 13.4 km/h 74% 0.0 mm 0 W/m2
02:24 18.2 °C 13.1 °C 1015.5 hPa SW 6.1 km/h 15.8 km/h 72% 0.0 mm 0 W/m2
02:30 18.3 °C 12.9 °C 1015.5 hPa SW 12.2 km/h 15.8 km/h 71% 0.0 mm 0 W/m2
02:36 18.3 °C 12.7 °C 1015.5 hPa SW 5.0 km/h 15.8 km/h 70% 0.0 mm 0 W/m2
02:41 18.3 °C 12.7 °C 1015.5 hPa SW 7.2 km/h 15.8 km/h 70% 0.0 mm 0 W/m2
02:46 18.2 °C 12.9 °C 1015.5 hPa SSW 6.1 km/h 13.4 km/h 71% 0.0 mm 0 W/m2
02:51 18.2 °C 12.4 °C 1015.5 hPa SW 3.5 km/h 13.4 km/h 69% 0.0 mm 0 W/m2
02:56 18.1 °C 12.3 °C 1015.5 hPa WSW 6.1 km/h 13.4 km/h 69% 0.0 mm 0 W/m2
03:01 18.1 °C 12.3 °C 1015.8 hPa SW 2.6 km/h 11.1 km/h 69% 0.0 mm 0 W/m2
03:06 18.0 °C 12.2 °C 1015.5 hPa SW 3.5 km/h 9.7 km/h 69% 0.0 mm 0 W/m2
03:12 17.8 °C 12.3 °C 1015.8 hPa WSW 3.5 km/h 8.7 km/h 70% 0.0 mm 0 W/m2
03:17 17.7 °C 12.4 °C 1015.8 hPa WSW 1.1 km/h 8.7 km/h 71% 0.0 mm 0 W/m2
03:22 17.5 °C 12.2 °C 1015.8 hPa West 1.1 km/h 6.1 km/h 71% 0.0 mm 0 W/m2
03:27 17.5 °C 12.2 °C 1015.8 hPa WSW 1.1 km/h 9.7 km/h 71% 0.0 mm 0 W/m2
03:32 17.4 °C 11.9 °C 1015.8 hPa WSW 1.1 km/h 9.7 km/h 70% 0.0 mm 0 W/m2
03:38 17.1 °C 11.4 °C 1015.8 hPa NW 1.1 km/h 6.1 km/h 69% 0.0 mm 0 W/m2
03:43 16.5 °C 10.8 °C 1016.1 hPa NW 3.5 km/h 6.1 km/h 69% 0.0 mm 0 W/m2
03:48 16.0 °C 10.6 °C 1016.1 hPa NW 2.6 km/h 6.1 km/h 70% 0.0 mm 0 W/m2
03:53 15.6 °C 10.8 °C 1015.8 hPa NNW 2.6 km/h 6.1 km/h 73% 0.0 mm 0 W/m2
03:58 15.3 °C 10.7 °C 1016.1 hPa NNW 2.6 km/h 6.1 km/h 74% 0.0 mm 0 W/m2
04:03 15.0 °C 10.6 °C 1016.1 hPa Calm   5.0 km/h 75% 0.0 mm 0 W/m2
04:08 14.7 °C 10.5 °C 1016.1 hPa NNW 2.6 km/h 5.0 km/h 76% 0.0 mm 0 W/m2
04:13 14.4 °C 10.4 °C 1016.1 hPa NW 1.1 km/h 5.0 km/h 77% 0.0 mm 0 W/m2
04:18 14.3 °C 10.3 °C 1016.1 hPa NW 3.5 km/h 7.2 km/h 77% 0.0 mm 0 W/m2
04:23 14.1 °C 10.5 °C 1016.5 hPa Calm   7.2 km/h 79% 0.0 mm 0 W/m2
04:28 13.9 °C 10.5 °C 1016.5 hPa NW 1.1 km/h 5.0 km/h 80% 0.0 mm 0 W/m2
04:34 13.8 °C 10.8 °C 1016.8 hPa NNW 3.5 km/h 6.1 km/h 82% 0.0 mm 0 W/m2
04:40 13.6 °C 10.9 °C 1016.8 hPa NW 2.6 km/h 6.1 km/h 84% 0.0 mm 0 W/m2
04:45 13.6 °C 11.1 °C 1016.8 hPa NW 2.6 km/h 6.1 km/h 85% 0.0 mm 0 W/m2
04:50 13.4 °C 10.9 °C 1016.8 hPa NW 2.6 km/h 6.1 km/h 85% 0.0 mm 0 W/m2
04:55 13.3 °C 10.8 °C 1016.8 hPa NW 1.1 km/h 6.1 km/h 85% 0.0 mm 0 W/m2
05:00 13.2 °C 10.7 °C 1017.5 hPa NNW 1.1 km/h 3.5 km/h 85% 0.0 mm 0 W/m2
05:06 13.1 °C 10.8 °C 1017.2 hPa North 2.6 km/h 3.5 km/h 86% 0.0 mm 0 W/m2
05:11 13.0 °C 10.7 °C 1017.5 hPa Calm   3.5 km/h 86% 0.0 mm 0 W/m2
05:16 13.0 °C 10.9 °C 1017.5 hPa North 5.0 km/h 7.2 km/h 87% 0.0 mm 0 W/m2
05:21 13.1 °C 11.0 °C 1017.5 hPa North 3.5 km/h 7.2 km/h 87% 0.0 mm 0 W/m2
05:27 13.2 °C 11.1 °C 1017.8 hPa NNW 1.1 km/h 5.0 km/h 87% 0.0 mm 0 W/m2
05:32 13.3 °C 11.2 °C 1017.8 hPa NW 2.6 km/h 5.0 km/h 87% 0.0 mm 0 W/m2
05:37 13.4 °C 11.3 °C 1017.8 hPa NW 1.1 km/h 6.1 km/h 87% 0.0 mm 0 W/m2
05:42 13.4 °C 11.3 °C 1017.8 hPa NW 1.1 km/h 6.1 km/h 87% 0.0 mm 0 W/m2
05:47 13.4 °C 11.1 °C 1018.2 hPa NNW 3.5 km/h 6.1 km/h 86% 0.0 mm 0 W/m2
05:52 13.3 °C 11.0 °C 1018.2 hPa NNW 3.5 km/h 6.1 km/h 86% 0.0 mm 0 W/m2
06:02 13.3 °C 11.2 °C 1018.2 hPa NW 2.6 km/h 6.1 km/h 87% 0.0 mm 0 W/m2
06:07 13.3 °C 11.2 °C 1018.2 hPa NNW 2.6 km/h 7.2 km/h 87% 0.0 mm 0 W/m2
06:12 13.3 °C 11.2 °C 1018.5 hPa NNW 2.6 km/h 7.2 km/h 87% 0.0 mm 0 W/m2
06:17 13.4 °C 11.3 °C 1018.2 hPa NNW 3.5 km/h 6.1 km/h 87% 0.0 mm 0 W/m2
06:22 13.4 °C 11.3 °C 1018.5 hPa NNW 3.5 km/h 6.1 km/h 87% 0.0 mm 1 W/m2
06:27 13.4 °C 11.3 °C 1018.5 hPa NNW 1.1 km/h 6.1 km/h 87% 0.0 mm 3 W/m2
06:32 13.4 °C 11.3 °C 1018.5 hPa NNW 2.6 km/h 7.2 km/h 87% 0.0 mm 5 W/m2
06:35 13.4 °C 11.3 °C 1018.5 hPa NW 6.1 km/h 7.2 km/h 87% 0.0 mm 6 W/m2
06:40 13.4 °C 11.4 °C 1018.5 hPa NW 3.5 km/h 8.7 km/h 88% 0.0 mm 9 W/m2
06:45 13.5 °C 11.6 °C 1018.8 hPa NNW 5.0 km/h 8.7 km/h 88% 0.0 mm 11 W/m2
06:51 13.7 °C 11.8 °C 1018.8 hPa NNW 5.0 km/h 8.7 km/h 88% 0.0 mm 13 W/m2
06:56 13.8 °C 11.7 °C 1018.8 hPa North 3.5 km/h 8.7 km/h 87% 0.0 mm 16 W/m2
07:11 14.5 °C 12.0 °C 1019.2 hPa North 2.6 km/h 7.2 km/h 85% 0.0 mm 31 W/m2
07:16 14.7 °C 12.2 °C 1019.2 hPa North 1.1 km/h 6.1 km/h 85% 0.0 mm 41 W/m2
07:21 14.9 °C 12.2 °C 1019.2 hPa North 1.1 km/h 5.0 km/h 84% 0.0 mm 52 W/m2
07:31 15.0 °C 11.9 °C 1019.5 hPa NW 3.5 km/h 8.7 km/h 82% 0.0 mm 68 W/m2
07:36 15.0 °C 11.9 °C 1019.5 hPa NW 5.0 km/h 9.7 km/h 82% 0.0 mm 75 W/m2
07:41 15.0 °C 11.9 °C 1019.5 hPa NW 3.5 km/h 9.7 km/h 82% 0.0 mm 76 W/m2
07:46 15.2 °C 12.2 °C 1019.5 hPa NNW 6.1 km/h 9.7 km/h 82% 0.0 mm 86 W/m2
07:51 15.3 °C 12.1 °C 1019.9 hPa NNW 3.5 km/h 9.7 km/h 81% 0.0 mm 89 W/m2
07:56 15.4 °C 12.2 °C 1019.9 hPa NNW 5.0 km/h 8.7 km/h 81% 0.0 mm 107 W/m2
08:01 15.6 °C 12.2 °C 1019.9 hPa NNW 3.5 km/h 7.2 km/h 80% 0.0 mm 113 W/m2
08:06 15.6 °C 12.0 °C 1020.2 hPa NNW 3.5 km/h 7.2 km/h 79% 0.0 mm 121 W/m2
08:11 15.9 °C 12.3 °C 1020.2 hPa NNW 2.6 km/h 7.2 km/h 79% 0.0 mm 131 W/m2
08:16 16.2 °C 12.2 °C 1020.2 hPa NNW 3.5 km/h 6.1 km/h 77% 0.0 mm 142 W/m2
08:26 16.6 °C 12.3 °C 1020.2 hPa North 2.6 km/h 6.1 km/h 76% 0.0 mm 193 W/m2
08:31 17.3 °C 12.6 °C 1020.2 hPa Calm   5.0 km/h 74% 0.0 mm 176 W/m2
08:36 17.6 °C 12.5 °C 1020.2 hPa NNW 3.5 km/h 5.0 km/h 72% 0.0 mm 201 W/m2
08:41 18.0 °C 12.9 °C 1020.2 hPa North 1.1 km/h 5.0 km/h 72% 0.0 mm 163 W/m2
08:46 18.7 °C 13.3 °C 1020.5 hPa Calm   5.0 km/h 71% 0.0 mm 181 W/m2
08:51 19.0 °C 12.5 °C 1020.5 hPa SSW 1.1 km/h 8.7 km/h 66% 0.0 mm 222 W/m2
08:56 19.3 °C 12.3 °C 1020.2 hPa SW 8.7 km/h 13.4 km/h 64% 0.0 mm 303 W/m2
09:01 20.0 °C 12.8 °C 1020.5 hPa WSW 8.7 km/h 13.4 km/h 63% 0.0 mm 320 W/m2
09:06 19.8 °C 12.6 °C 1020.5 hPa WSW 9.7 km/h 17.2 km/h 63% 0.0 mm 322 W/m2
09:16 20.2 °C 12.9 °C 1020.5 hPa SW 6.1 km/h 17.2 km/h 63% 0.0 mm 396 W/m2
09:21 20.0 °C 12.5 °C 1020.5 hPa SW 7.2 km/h 17.2 km/h 62% 0.0 mm 434 W/m2
09:26 20.1 °C 12.6 °C 1020.5 hPa SW 13.4 km/h 18.3 km/h 62% 0.0 mm 494 W/m2
09:31 20.6 °C 12.8 °C 1020.5 hPa SW 13.4 km/h 21.9 km/h 61% 0.0 mm 409 W/m2
09:36 20.1 °C 12.6 °C 1020.5 hPa SW 11.1 km/h 21.9 km/h 62% 0.0 mm 529 W/m2
09:41 20.1 °C 12.8 °C 1020.9 hPa SW 12.2 km/h 20.9 km/h 63% 0.0 mm 506 W/m2
09:46 20.2 °C 12.9 °C 1020.9 hPa SSW 15.8 km/h 23.3 km/h 63% 0.0 mm 383 W/m2
09:51 20.0 °C 12.8 °C 1020.9 hPa SSW 17.2 km/h 23.3 km/h 63% 0.0 mm 513 W/m2
09:56 19.8 °C 13.1 °C 1020.9 hPa SW 6.1 km/h 23.3 km/h 65% 0.0 mm 585 W/m2
10:01 20.2 °C 12.9 °C 1020.9 hPa SW 11.1 km/h 23.3 km/h 63% 0.0 mm 342 W/m2
10:06 19.6 °C 12.6 °C 1021.2 hPa SW 9.7 km/h 24.5 km/h 64% 0.0 mm 307 W/m2
10:11 19.3 °C 12.6 °C 1020.9 hPa WSW 13.4 km/h 24.5 km/h 65% 0.0 mm 290 W/m2
10:16 19.3 °C 12.6 °C 1021.2 hPa SW 12.2 km/h 18.3 km/h 65% 0.0 mm 312 W/m2
10:21 19.3 °C 12.6 °C 1021.2 hPa SSW 12.2 km/h 19.5 km/h 65% 0.0 mm 365 W/m2
10:26 19.4 °C 12.7 °C 1021.2 hPa SW 13.4 km/h 20.9 km/h 65% 0.0 mm 462 W/m2
10:31 19.6 °C 12.8 °C 1021.2 hPa SSW 9.7 km/h 23.3 km/h 65% 0.0 mm 368 W/m2
10:36 19.6 °C 13.1 °C 1021.2 hPa SSW 11.1 km/h 23.3 km/h 66% 0.0 mm 384 W/m2
10:41 19.6 °C 13.1 °C 1021.2 hPa SSW 11.1 km/h 23.3 km/h 66% 0.0 mm 333 W/m2
10:46 19.4 °C 13.1 °C 1021.2 hPa SSW 9.7 km/h 17.2 km/h 67% 0.0 mm 284 W/m2
10:51 19.8 °C 13.5 °C 1021.2 hPa SSW 9.7 km/h 17.2 km/h 67% 0.0 mm 769 W/m2
10:56 20.0 °C 13.7 °C 1021.2 hPa SW 12.2 km/h 15.8 km/h 67% 0.0 mm 791 W/m2
11:01 20.2 °C 13.7 °C 1021.2 hPa WSW 11.1 km/h 17.2 km/h 66% 0.0 mm 814 W/m2
11:20 20.3 °C 14.2 °C 1021.6 hPa SSW 11.1 km/h 21.9 km/h 68% 0.0 mm 860 W/m2
11:25 20.5 °C 14.6 °C 1021.6 hPa SSW 9.7 km/h 21.9 km/h 69% 0.0 mm 876 W/m2
11:30 20.5 °C 14.2 °C 1021.6 hPa SSW 8.7 km/h 23.3 km/h 67% 0.0 mm 886 W/m2
11:35 20.4 °C 14.3 °C 1021.6 hPa South 11.1 km/h 23.3 km/h 68% 0.0 mm 902 W/m2
11:40 20.4 °C 15.0 °C 1021.6 hPa SSW 8.7 km/h 19.5 km/h 71% 0.0 mm 912 W/m2
11:50 20.7 °C 15.3 °C 1021.6 hPa SSW 9.7 km/h 20.9 km/h 71% 0.0 mm 941 W/m2
11:56 20.8 °C 15.4 °C 1021.6 hPa South 13.4 km/h 18.3 km/h 71% 0.0 mm 937 W/m2
11:57 20.7 °C 15.3 °C 1021.6 hPa South 12.2 km/h 18.3 km/h 71% 0.0 mm 933 W/m2
12:01 20.7 °C 15.7 °C 1021.6 hPa SSW 11.1 km/h 18.3 km/h 73% 0.0 mm 944 W/m2
12:02 20.7 °C 15.5 °C 1021.6 hPa SSW 8.7 km/h 18.3 km/h 72% 0.0 mm 946 W/m2
12:07 21.0 °C 15.6 °C 1021.6 hPa SW 9.7 km/h 18.3 km/h 71% 0.0 mm 951 W/m2
12:12 21.1 °C 15.7 °C 1021.6 hPa SW 9.7 km/h 18.3 km/h 71% 0.0 mm 963 W/m2
12:17 20.9 °C 15.9 °C 1021.6 hPa SW 12.2 km/h 19.5 km/h 73% 0.0 mm 975 W/m2
12:22 20.8 °C 16.0 °C 1021.6 hPa SSW 18.3 km/h 20.9 km/h 74% 0.0 mm 979 W/m2
12:27 20.8 °C 16.0 °C 1021.6 hPa SSW 12.2 km/h 20.9 km/h 74% 0.0 mm 986 W/m2
12:32 20.9 °C 15.9 °C 1021.6 hPa SSW 12.2 km/h 21.9 km/h 73% 0.0 mm 1087 W/m2
12:37 20.9 °C 16.1 °C 1021.6 hPa SSW 11.1 km/h 21.9 km/h 74% 0.0 mm 607 W/m2
12:42 20.9 °C 15.9 °C 1021.6 hPa SSW 11.1 km/h 19.5 km/h 73% 0.0 mm 1075 W/m2
12:47 20.7 °C 15.9 °C 1021.6 hPa SSW 12.2 km/h 20.9 km/h 74% 0.0 mm 1034 W/m2
12:52 20.9 °C 15.9 °C 1021.2 hPa SSW 13.4 km/h 20.9 km/h 73% 0.0 mm 1057 W/m2
12:57 21.2 °C 15.5 °C 1021.2 hPa South 7.2 km/h 19.5 km/h 70% 0.0 mm 1013 W/m2
13:02 21.3 °C 15.6 °C 1021.6 hPa South 13.4 km/h 19.5 km/h 70% 0.0 mm 990 W/m2
13:07 21.1 °C 15.7 °C 1021.6 hPa South 11.1 km/h 19.5 km/h 71% 0.0 mm 959 W/m2
13:12 21.0 °C 15.3 °C 1021.6 hPa South 14.8 km/h 20.9 km/h 70% 0.0 mm 943 W/m2
13:17 21.0 °C 15.8 °C 1021.6 hPa South 11.1 km/h 20.9 km/h 72% 0.0 mm 720 W/m2
13:22 21.1 °C 15.2 °C 1021.6 hPa South 13.4 km/h 21.9 km/h 69% 0.0 mm 938 W/m2
13:27 21.0 °C 15.6 °C 1021.6 hPa South 14.8 km/h 21.9 km/h 71% 0.0 mm 956 W/m2
13:32 21.0 °C 15.1 °C 1021.6 hPa South 7.2 km/h 19.5 km/h 69% 0.0 mm 931 W/m2
13:37 21.3 °C 15.4 °C 1021.6 hPa South 13.4 km/h 19.5 km/h 69% 0.0 mm 751 W/m2
13:42 21.0 °C 15.1 °C 1021.6 hPa South 12.2 km/h 20.9 km/h 69% 0.0 mm 846 W/m2
13:47 21.0 °C 15.3 °C 1021.6 hPa South 12.2 km/h 20.9 km/h 70% 0.0 mm 883 W/m2
13:52 20.6 °C 15.4 °C 1021.6 hPa South 12.2 km/h 23.3 km/h 72% 0.0 mm 914 W/m2
13:57 20.8 °C 15.8 °C 1021.6 hPa South 8.7 km/h 23.3 km/h 73% 0.0 mm 892 W/m2
14:02 20.7 °C 15.1 °C 1021.6 hPa SSE 9.7 km/h 21.9 km/h 70% 0.0 mm 894 W/m2
14:07 20.6 °C 15.2 °C 1021.6 hPa SSE 14.8 km/h 21.9 km/h 71% 0.0 mm 883 W/m2
14:12 20.8 °C 15.4 °C 1021.6 hPa SSE 17.2 km/h 24.5 km/h 71% 0.0 mm 869 W/m2
14:17 20.3 °C 15.3 °C 1021.6 hPa SSE 9.7 km/h 24.5 km/h 73% 0.0 mm 506 W/m2
14:22 20.6 °C 15.2 °C 1021.2 hPa SSE 8.7 km/h 23.3 km/h 71% 0.0 mm 862 W/m2
14:27 20.6 °C 14.9 °C 1021.2 hPa SSE 12.2 km/h 23.3 km/h 70% 0.0 mm 854 W/m2
14:32 20.8 °C 15.4 °C 1021.6 hPa SSE 8.7 km/h 23.3 km/h 71% 0.0 mm 845 W/m2
14:37 20.9 °C 15.2 °C 1021.6 hPa SSE 12.2 km/h 21.9 km/h 70% 0.0 mm 840 W/m2
14:42 20.6 °C 15.4 °C 1021.2 hPa South 8.7 km/h 20.9 km/h 72% 0.0 mm 827 W/m2
14:47 20.7 °C 15.5 °C 1021.2 hPa South 12.2 km/h 24.5 km/h 72% 0.0 mm 836 W/m2
14:52 21.0 °C 15.8 °C 1021.2 hPa SSE 6.1 km/h 25.6 km/h 72% 0.0 mm 827 W/m2
14:57 21.4 °C 15.7 °C 1021.2 hPa SSE 2.6 km/h 25.6 km/h 70% 0.0 mm 835 W/m2
15:02 21.7 °C 15.6 °C 1021.2 hPa SSE 8.7 km/h 21.9 km/h 68% 0.0 mm 798 W/m2
15:07 21.5 °C 15.1 °C 1021.2 hPa SSE 8.7 km/h 20.9 km/h 67% 0.0 mm 796 W/m2
15:12 21.7 °C 16.0 °C 1021.6 hPa SSE 7.2 km/h 19.5 km/h 70% 0.0 mm 825 W/m2
15:17 21.8 °C 15.7 °C 1021.6 hPa SE 8.7 km/h 19.5 km/h 68% 0.0 mm 748 W/m2
15:22 21.8 °C 15.7 °C 1021.2 hPa SE 8.7 km/h 18.3 km/h 68% 0.0 mm 751 W/m2
15:27 21.5 °C 15.6 °C 1021.2 hPa SSE 6.1 km/h 18.3 km/h 69% 0.0 mm 760 W/m2
15:32 21.7 °C 15.3 °C 1021.2 hPa SSE 7.2 km/h 19.5 km/h 67% 0.0 mm 751 W/m2
15:37 21.8 °C 15.4 °C 1021.2 hPa SSE 5.0 km/h 23.3 km/h 67% 0.0 mm 577 W/m2
15:42 22.3 °C 15.2 °C 1021.2 hPa SE 13.4 km/h 23.3 km/h 64% 0.0 mm 502 W/m2
15:47 22.2 °C 15.3 °C 1021.6 hPa SSE 6.1 km/h 15.8 km/h 65% 0.0 mm 451 W/m2
15:52 22.0 °C 14.9 °C 1021.2 hPa SSE 13.4 km/h 18.3 km/h 64% 0.0 mm 548 W/m2
15:57 22.0 °C 14.9 °C 1021.2 hPa SE 9.7 km/h 18.3 km/h 64% 0.0 mm 551 W/m2
16:02 21.8 °C 15.2 °C 1021.2 hPa SE 8.7 km/h 23.3 km/h 66% 0.0 mm 538 W/m2
16:07 22.1 °C 15.4 °C 1021.2 hPa South 3.5 km/h 23.3 km/h 66% 0.0 mm 644 W/m2
16:17 22.3 °C 15.2 °C 1020.9 hPa ESE 11.1 km/h 19.5 km/h 64% 0.0 mm 624 W/m2
16:23 22.3 °C 15.2 °C 1021.2 hPa ESE 8.7 km/h 19.5 km/h 64% 0.0 mm 582 W/m2
16:28 22.0 °C 15.1 °C 1020.9 hPa SE 6.1 km/h 20.9 km/h 65% 0.0 mm 594 W/m2
16:33 22.6 °C 15.7 °C 1020.9 hPa SE 6.1 km/h 20.9 km/h 65% 0.0 mm 575 W/m2
16:36 22.7 °C 15.3 °C 1020.9 hPa SE 8.7 km/h 20.9 km/h 63% 0.0 mm 569 W/m2
16:40 22.4 °C 15.5 °C 1020.9 hPa SE 8.7 km/h 21.9 km/h 65% 0.0 mm 563 W/m2
16:45 22.5 °C 15.6 °C 1020.9 hPa SSE 11.1 km/h 21.9 km/h 65% 0.0 mm 550 W/m2
16:50 22.5 °C 15.4 °C 1020.9 hPa SSE 9.7 km/h 19.5 km/h 64% 0.0 mm 534 W/m2
17:00 22.7 °C 15.6 °C 1020.9 hPa SE 9.7 km/h 20.9 km/h 64% 0.0 mm 508 W/m2
17:06 22.6 °C 15.9 °C 1020.5 hPa SE 12.2 km/h 24.5 km/h 66% 0.0 mm 491 W/m2
17:11 22.3 °C 15.7 °C 1020.9 hPa SE 12.2 km/h 24.5 km/h 66% 0.0 mm 477 W/m2
17:16 22.3 °C 15.4 °C 1020.9 hPa SE 6.1 km/h 20.9 km/h 65% 0.0 mm 460 W/m2
17:21 22.5 °C 15.6 °C 1020.5 hPa SSE 7.2 km/h 20.9 km/h 65% 0.0 mm 448 W/m2
17:26 22.8 °C 15.4 °C 1020.5 hPa SSE 8.7 km/h 20.9 km/h 63% 0.0 mm 433 W/m2
17:31 23.0 °C 15.3 °C 1020.2 hPa SE 15.8 km/h 20.9 km/h 62% 0.0 mm 415 W/m2
17:36 22.6 °C 15.2 °C 1020.2 hPa ESE 9.7 km/h 23.3 km/h 63% 0.0 mm 403 W/m2
17:41 23.1 °C 15.4 °C 1020.2 hPa East 12.2 km/h 23.3 km/h 62% 0.0 mm 387 W/m2
17:46 22.6 °C 14.9 °C 1020.2 hPa ESE 11.1 km/h 23.3 km/h 62% 0.0 mm 373 W/m2
17:51 22.5 °C 14.9 °C 1020.2 hPa SE 8.7 km/h 23.3 km/h 62% 0.0 mm 360 W/m2
17:56 22.4 °C 15.3 °C 1020.2 hPa SE 8.7 km/h 19.5 km/h 64% 0.0 mm 340 W/m2
18:01 22.5 °C 14.9 °C 1020.2 hPa ESE 8.7 km/h 19.5 km/h 62% 0.0 mm 332 W/m2
18:06 22.1 °C 14.7 °C 1020.2 hPa East 15.8 km/h 24.5 km/h 63% 0.0 mm 312 W/m2
18:11 21.9 °C 15.1 °C 1020.2 hPa ESE 7.2 km/h 27.0 km/h 65% 0.0 mm 298 W/m2
18:16 21.9 °C 15.1 °C 1020.2 hPa ESE 15.8 km/h 27.0 km/h 65% 0.0 mm 287 W/m2
18:21 21.9 °C 15.1 °C 1020.2 hPa ESE 14.8 km/h 24.5 km/h 65% 0.0 mm 273 W/m2
18:26 21.5 °C 14.9 °C 1020.2 hPa ESE 12.2 km/h 28.0 km/h 66% 0.0 mm 257 W/m2
18:31 21.8 °C 14.7 °C 1020.2 hPa SE 8.7 km/h 28.0 km/h 64% 0.0 mm 247 W/m2
18:36 21.9 °C 14.8 °C 1020.2 hPa SE 8.7 km/h 21.9 km/h 64% 0.0 mm 243 W/m2
18:56 21.3 °C 14.4 °C 1020.2 hPa ESE 8.7 km/h 15.8 km/h 65% 0.0 mm 105 W/m2
19:01 20.9 °C 14.8 °C 1020.5 hPa SE 8.7 km/h 17.2 km/h 68% 0.0 mm 101 W/m2
19:06 20.8 °C 14.9 °C 1020.5 hPa ESE 6.1 km/h 17.2 km/h 69% 0.0 mm 95 W/m2
19:11 20.7 °C 14.8 °C 1020.5 hPa ESE 8.7 km/h 15.8 km/h 69% 0.0 mm 84 W/m2
19:15 20.6 °C 14.5 °C 1020.5 hPa ESE 12.2 km/h 19.5 km/h 68% 0.0 mm 76 W/m2
19:20 20.4 °C 14.6 °C 1020.5 hPa ESE 9.7 km/h 20.9 km/h 69% 0.0 mm 73 W/m2
19:25 20.3 °C 14.7 °C 1020.5 hPa ESE 18.3 km/h 23.3 km/h 70% 0.0 mm 76 W/m2
19:30 20.3 °C 14.7 °C 1020.9 hPa East 8.7 km/h 23.3 km/h 70% 0.0 mm 62 W/m2
19:35 20.2 °C 14.6 °C 1020.9 hPa East 13.4 km/h 23.3 km/h 70% 0.0 mm 50 W/m2
19:40 20.1 °C 14.2 °C 1020.9 hPa East 12.2 km/h 18.3 km/h 69% 0.0 mm 38 W/m2
19:45 20.1 °C 14.2 °C 1020.9 hPa ESE 5.0 km/h 18.3 km/h 69% 0.0 mm 25 W/m2
19:50 20.1 °C 14.2 °C 1020.9 hPa ESE 9.7 km/h 15.8 km/h 69% 0.0 mm 17 W/m2
19:55 20.0 °C 14.2 °C 1020.9 hPa East 7.2 km/h 17.2 km/h 69% 0.0 mm 14 W/m2
20:00 20.0 °C 14.4 °C 1020.9 hPa ENE 8.7 km/h 17.2 km/h 70% 0.0 mm 12 W/m2
20:06 19.9 °C 14.5 °C 1021.2 hPa East 9.7 km/h 17.2 km/h 71% 0.0 mm 8 W/m2
20:11 19.8 °C 14.2 °C 1020.9 hPa East 7.2 km/h 14.8 km/h 70% 0.0 mm 6 W/m2
20:16 19.8 °C 14.2 °C 1021.2 hPa East 6.1 km/h 13.4 km/h 70% 0.0 mm 4 W/m2
20:21 19.8 °C 14.4 °C 1021.2 hPa ENE 11.1 km/h 15.8 km/h 71% 0.0 mm 2 W/m2
20:26 19.7 °C 14.3 °C 1021.2 hPa ENE 3.5 km/h 15.8 km/h 71% 0.0 mm 0 W/m2
20:31 19.7 °C 14.3 °C 1021.2 hPa ENE 5.0 km/h 15.8 km/h 71% 0.0 mm 0 W/m2
20:36 19.6 °C 14.4 °C 1021.6 hPa ENE 5.0 km/h 11.1 km/h 72% 0.0 mm 0 W/m2
20:41 19.7 °C 14.3 °C 1021.2 hPa ENE 3.5 km/h 11.1 km/h 71% 0.0 mm 0 W/m2
20:46 19.7 °C 14.3 °C 1021.6 hPa ENE 3.5 km/h 11.1 km/h 71% 0.0 mm 0 W/m2
20:51 19.7 °C 14.3 °C 1021.6 hPa NE 3.5 km/h 8.7 km/h 71% 0.0 mm 0 W/m2
20:56 19.7 °C 14.3 °C 1021.6 hPa NNE 5.0 km/h 9.7 km/h 71% 0.0 mm 0 W/m2
21:01 19.6 °C 14.0 °C 1021.6 hPa NE 1.1 km/h 12.2 km/h 70% 0.0 mm 0 W/m2
21:06 19.4 °C 14.0 °C 1021.6 hPa NNE 3.5 km/h 12.2 km/h 71% 0.0 mm 0 W/m2
21:16 19.3 °C 14.1 °C 1021.9 hPa NE 6.1 km/h 13.4 km/h 72% 0.0 mm 0 W/m2
21:21 19.2 °C 14.1 °C 1021.9 hPa NE 7.2 km/h 13.4 km/h 72% 0.0 mm 0 W/m2
21:26 19.1 °C 13.9 °C 1021.6 hPa NE 7.2 km/h 15.8 km/h 72% 0.0 mm 0 W/m2
21:31 19.1 °C 14.2 °C 1021.9 hPa NNE 3.5 km/h 15.8 km/h 73% 0.0 mm 0 W/m2
21:36 19.0 °C 14.1 °C 1021.9 hPa NE 2.6 km/h 12.2 km/h 73% 0.0 mm 0 W/m2
21:41 19.0 °C 14.1 °C 1021.9 hPa NE 3.5 km/h 12.2 km/h 73% 0.0 mm 0 W/m2
21:46 18.9 °C 14.4 °C 1021.9 hPa NNE 3.5 km/h 11.1 km/h 75% 0.0 mm 0 W/m2
21:51 18.9 °C 14.4 °C 1021.9 hPa NE 3.5 km/h 8.7 km/h 75% 0.0 mm 0 W/m2
21:56 18.8 °C 14.3 °C 1022.2 hPa NNE 3.5 km/h 8.7 km/h 75% 0.0 mm 0 W/m2
22:01 18.8 °C 14.3 °C 1021.9 hPa NNE 5.0 km/h 8.7 km/h 75% 0.0 mm 0 W/m2
22:06 18.7 °C 14.2 °C 1021.9 hPa NE 3.5 km/h 11.1 km/h 75% 0.0 mm 0 W/m2
22:11 18.6 °C 14.1 °C 1021.9 hPa ENE 3.5 km/h 11.1 km/h 75% 0.0 mm 0 W/m2
22:16 18.5 °C 14.0 °C 1021.9 hPa Calm   9.7 km/h 75% 0.0 mm 0 W/m2
22:21 18.4 °C 14.1 °C 1021.9 hPa NNE 2.6 km/h 7.2 km/h 76% 0.0 mm 0 W/m2
22:26 18.4 °C 14.1 °C 1022.2 hPa NNE 2.6 km/h 5.0 km/h 76% 0.0 mm 0 W/m2
22:31 18.3 °C 14.0 °C 1021.9 hPa NE 2.6 km/h 5.0 km/h 76% 0.0 mm 0 W/m2
22:36 18.2 °C 13.9 °C 1021.9 hPa NNE 3.5 km/h 6.1 km/h 76% 0.0 mm 0 W/m2
22:46 18.1 °C 13.8 °C 1021.6 hPa NE 1.1 km/h 8.7 km/h 76% 0.0 mm 0 W/m2
22:51 18.0 °C 13.9 °C 1021.9 hPa NE 3.5 km/h 6.1 km/h 77% 0.0 mm 0 W/m2
22:56 18.0 °C 13.9 °C 1021.9 hPa NE 1.1 km/h 7.2 km/h 77% 0.0 mm 0 W/m2
23:01 17.9 °C 13.8 °C 1021.9 hPa NE 1.1 km/h 7.2 km/h 77% 0.0 mm 0 W/m2
23:11 17.8 °C 13.9 °C 1021.6 hPa Calm   5.0 km/h 78% 0.0 mm 0 W/m2
23:16 17.6 °C 13.7 °C 1021.9 hPa Calm   2.6 km/h 78% 0.0 mm 0 W/m2
23:21 17.5 °C 13.8 °C 1021.9 hPa NE 2.6 km/h 5.0 km/h 79% 0.0 mm 0 W/m2
23:26 17.5 °C 13.8 °C 1021.6 hPa NE 2.6 km/h 6.1 km/h 79% 0.0 mm 0 W/m2
23:31 17.4 °C 13.7 °C 1021.6 hPa Calm   6.1 km/h 79% 0.0 mm 0 W/m2
23:36 17.3 °C 13.8 °C 1021.6 hPa Calm   3.5 km/h 80% 0.0 mm 0 W/m2
23:41 17.2 °C 13.9 °C 1021.6 hPa Calm   3.5 km/h 81% 0.0 mm 0 W/m2
23:46 17.2 °C 13.9 °C 1021.6 hPa Calm   3.5 km/h 81% 0.0 mm 0 W/m2
23:47 17.1 °C 13.8 °C 1021.6 hPa Calm   3.5 km/h 81% 0.0 mm 0 W/m2
23:52 17.0 °C 13.7 °C 1021.6 hPa Calm   3.5 km/h 81% 0.0 mm 0 W/m2
23:57 17.0 °C 13.7 °C 1021.6 hPa Calm   3.5 km/h 81% 0.0 mm 0 W/m2
Northern Hawkes Bay. New Zealand Historic Data
Compliments of Weather Underground - 2 mb